createdAt,value
2018-01-13T00:01:42.086Z,23.38
2018-01-13T00:04:10.204Z,21.08
2018-01-13T00:06:38.352Z,21.90
2018-01-13T00:09:07.239Z,26.97
2018-01-13T00:11:36.171Z,26.00
2018-01-13T00:14:04.266Z,26.17
2018-01-13T00:16:32.413Z,23.58
2018-01-13T00:19:00.523Z,24.77
2018-01-13T00:21:29.424Z,26.42
2018-01-13T00:23:57.569Z,26.47
2018-01-13T00:26:25.688Z,22.77
2018-01-13T00:28:54.570Z,29.85
2018-01-13T00:31:24.049Z,23.38
2018-01-13T00:33:53.680Z,24.87
2018-01-13T00:36:22.591Z,27.00
2018-01-13T00:38:50.750Z,27.13
2018-01-13T00:41:19.637Z,18.65
2018-01-13T00:43:48.560Z,20.77
2018-01-13T00:46:16.694Z,21.48
2018-01-13T00:48:45.694Z,20.98
2018-01-13T00:51:14.574Z,20.70
2018-01-13T00:53:42.705Z,18.37
2018-01-13T00:56:10.825Z,22.48
2018-01-13T00:58:39.814Z,19.30
2018-01-13T01:01:08.732Z,22.67
2018-01-13T01:03:36.898Z,21.92
2018-01-13T01:06:05.015Z,20.75
2018-01-13T01:08:33.149Z,25.87
2018-01-13T01:11:01.309Z,21.95
2018-01-13T01:13:30.226Z,24.17
2018-01-13T01:15:58.348Z,20.23
2018-01-13T01:18:26.455Z,22.13
2018-01-13T01:20:54.597Z,18.08
2018-01-13T01:23:23.483Z,29.40
2018-01-13T01:25:52.388Z,26.27
2018-01-13T01:28:21.278Z,26.33
2018-01-13T01:30:50.182Z,28.10
2018-01-13T01:33:18.322Z,22.90
2018-01-13T01:35:47.949Z,22.40
2018-01-13T01:38:16.855Z,24.08
2018-01-13T01:40:44.977Z,21.75
2018-01-13T01:43:13.100Z,24.80
2018-01-13T01:45:41.241Z,18.75
2018-01-13T01:51:01.081Z,21.73
2018-01-13T01:53:29.205Z,21.65
2018-01-13T01:55:57.388Z,21.90
2018-01-13T01:58:26.284Z,23.40
2018-01-13T02:00:55.192Z,22.40
2018-01-13T02:03:23.326Z,23.38
2018-01-13T02:05:51.513Z,21.08
2018-01-13T02:08:20.404Z,26.00
2018-01-13T02:10:49.319Z,25.30
2018-01-13T02:13:17.430Z,22.20
2018-01-13T02:15:45.594Z,21.75
2018-01-13T02:18:13.758Z,24.80
2018-01-13T02:20:41.878Z,21.48
2018-01-13T02:23:11.390Z,28.73
2018-01-13T02:25:40.289Z,27.13
2018-01-13T02:28:09.197Z,23.65
2018-01-13T02:30:37.309Z,26.52
2018-01-13T02:33:05.431Z,27.65
2018-01-13T02:35:33.556Z,22.13
2018-01-13T02:38:01.669Z,22.08
2018-01-13T02:40:29.817Z,19.07
2018-01-13T02:42:57.944Z,18.60
2018-01-13T02:45:26.078Z,18.83
2018-01-13T02:47:54.976Z,22.02
2018-01-13T02:50:23.109Z,18.48
2018-01-13T02:52:51.266Z,17.58
2018-01-13T02:55:19.401Z,23.47
2018-01-13T02:57:47.518Z,19.08
2018-01-13T03:00:15.668Z,25.17
2018-01-13T03:02:43.786Z,26.73
2018-01-13T03:05:12.707Z,25.60
2018-01-13T03:07:40.828Z,24.50
2018-01-13T03:10:08.959Z,26.77
2018-01-13T03:12:37.129Z,22.45
2018-01-13T03:15:05.249Z,27.00
2018-01-13T03:17:33.457Z,20.40
2018-01-13T03:20:02.356Z,23.45
2018-01-13T03:22:30.482Z,19.98
2018-01-13T03:24:58.617Z,19.30
2018-01-13T03:27:26.728Z,19.90
2018-01-13T03:29:54.868Z,16.65
2018-01-13T03:32:22.995Z,21.48
2018-01-13T03:34:51.888Z,22.10
2018-01-13T03:37:20.790Z,23.38
2018-01-13T03:39:49.679Z,25.60
2018-01-13T03:42:17.820Z,26.65
2018-01-13T03:44:46.016Z,24.95
2018-01-13T03:47:14.902Z,25.60
2018-01-13T03:49:43.917Z,26.77
2018-01-13T03:52:12.047Z,25.20
2018-01-13T03:54:41.687Z,24.03
2018-01-13T03:57:09.811Z,22.73
2018-01-13T03:59:37.934Z,22.55
2018-01-13T04:02:06.830Z,25.80
2018-01-13T04:04:34.954Z,23.62
2018-01-13T04:07:03.101Z,24.67
2018-01-13T04:09:31.215Z,23.20
2018-01-13T04:12:00.119Z,26.00
2018-01-13T04:14:29.004Z,26.58
2018-01-13T04:16:57.890Z,24.33
2018-01-13T04:19:26.793Z,25.42
2018-01-13T04:21:55.682Z,21.87
2018-01-13T04:24:24.575Z,27.23
2018-01-13T04:26:53.485Z,29.25
2018-01-13T04:29:21.603Z,28.52
2018-01-13T04:31:49.800Z,26.75
2018-01-13T04:34:18.690Z,28.27
2018-01-13T04:36:47.579Z,23.60
2018-01-13T04:39:16.475Z,25.88
2018-01-13T04:41:45.358Z,32.45
2018-01-13T04:44:14.270Z,26.50
2018-01-13T04:46:42.389Z,26.25
2018-01-13T04:49:10.530Z,25.40
2018-01-13T04:51:38.649Z,24.35
2018-01-13T04:54:06.776Z,29.45
2018-01-13T04:56:34.923Z,33.85
2018-01-13T04:59:03.050Z,29.05
2018-01-13T05:01:31.171Z,33.67
2018-01-13T05:03:59.298Z,27.73
2018-01-13T05:06:27.533Z,27.87
2018-01-13T05:08:56.418Z,27.13
2018-01-13T05:11:24.534Z,29.52
2018-01-13T05:13:54.174Z,26.40
2018-01-13T05:16:23.091Z,29.48
2018-01-13T05:18:51.196Z,27.25
2018-01-13T05:21:19.343Z,28.10
2018-01-13T05:23:47.714Z,27.63
2018-01-13T05:26:15.837Z,23.77
2018-01-13T05:28:43.979Z,27.58
2018-01-13T05:31:12.102Z,24.37
2018-01-13T05:33:41.062Z,26.90
2018-01-13T05:36:09.182Z,26.67
2018-01-13T05:38:37.313Z,22.70
2018-01-13T05:41:05.448Z,22.80
2018-01-13T05:43:33.577Z,24.80
2018-01-13T05:46:01.858Z,28.15
2018-01-13T05:48:30.745Z,31.73
2018-01-13T05:50:59.727Z,28.23
2018-01-13T05:53:28.632Z,30.90
2018-01-13T05:55:57.518Z,30.20
2018-01-13T05:58:26.441Z,35.45
2018-01-13T06:00:54.562Z,33.90
2018-01-13T06:03:22.685Z,31.00
2018-01-13T06:05:50.816Z,32.58
2018-01-13T06:08:19.709Z,29.48
2018-01-13T06:10:48.586Z,31.75
2018-01-13T06:13:16.715Z,34.85
2018-01-13T06:15:44.825Z,26.70
2018-01-13T06:18:12.980Z,28.83
2018-01-13T06:20:41.226Z,35.13
2018-01-13T06:23:09.391Z,31.85
2018-01-13T06:25:37.546Z,33.40
2018-01-13T06:28:06.445Z,30.10
2018-01-13T06:30:34.561Z,30.23
2018-01-13T06:33:02.906Z,28.73
2018-01-13T06:35:31.029Z,31.23
2018-01-13T06:37:59.174Z,31.40
2018-01-13T06:40:27.295Z,27.63
2018-01-13T06:42:56.184Z,26.05
2018-01-13T06:45:25.086Z,33.90
2018-01-13T06:47:53.226Z,31.83
2018-01-13T06:50:21.361Z,28.60
2018-01-13T06:52:49.483Z,24.45
2018-01-13T06:55:18.377Z,22.50
2018-01-13T06:57:47.270Z,18.98
2018-01-13T07:00:16.256Z,26.73
2018-01-13T07:02:44.402Z,27.35
2018-01-13T07:05:12.519Z,22.70
2018-01-13T07:07:40.775Z,21.20
2018-01-13T07:10:08.909Z,21.23
2018-01-13T07:12:37.086Z,22.35
2018-01-13T07:15:05.239Z,20.45
2018-01-13T07:17:33.360Z,25.90
2018-01-13T07:20:02.258Z,22.92
2018-01-13T07:22:31.250Z,24.20
2018-01-13T07:25:00.148Z,21.30
2018-01-13T07:27:28.292Z,21.70
2018-01-13T07:29:56.416Z,22.62
2018-01-13T07:32:25.327Z,24.85
2018-01-13T07:34:53.457Z,24.55
2018-01-13T07:37:21.565Z,20.95
2018-01-13T07:39:49.703Z,23.80
2018-01-13T07:42:18.611Z,21.75
2018-01-13T07:44:47.530Z,23.02
2018-01-13T07:47:15.666Z,26.20
2018-01-13T07:49:44.575Z,18.12
2018-01-13T07:52:12.771Z,21.37
2018-01-13T07:54:41.754Z,18.87
2018-01-13T07:57:10.628Z,21.10
2018-01-13T07:59:38.756Z,22.37
2018-01-13T08:02:06.887Z,25.07
2018-01-13T08:04:35.543Z,20.25
2018-01-13T08:07:04.442Z,20.45
2018-01-13T08:09:33.363Z,25.30
2018-01-13T08:12:01.487Z,27.90
2018-01-13T08:14:30.054Z,19.52
2018-01-13T08:16:58.407Z,18.52
2018-01-13T08:19:26.529Z,20.50
2018-01-13T08:21:55.441Z,20.62
2018-01-13T08:24:23.558Z,17.03
2018-01-13T08:26:51.682Z,19.45
2018-01-13T08:29:19.810Z,18.23
2018-01-13T08:31:47.926Z,17.98
2018-01-13T08:34:16.087Z,17.65
2018-01-13T08:36:44.989Z,18.98
2018-01-13T08:39:13.119Z,18.40
2018-01-13T08:41:41.252Z,16.60
2018-01-13T08:44:09.371Z,16.85
2018-01-13T08:46:37.522Z,18.48
2018-01-13T08:49:05.655Z,18.35
2018-01-13T08:51:33.774Z,19.40
2018-01-13T08:54:01.895Z,21.23
2018-01-13T08:56:30.032Z,22.87
2018-01-13T08:58:58.178Z,26.48
2018-01-13T09:01:28.716Z,21.30
2018-01-13T09:03:56.839Z,20.37
2018-01-13T09:06:24.994Z,16.92
2018-01-13T09:08:53.887Z,20.00
2018-01-13T09:11:22.902Z,21.90
2018-01-13T09:13:51.023Z,21.33
2018-01-13T09:16:19.166Z,19.42
2018-01-13T09:18:47.353Z,24.75
2018-01-13T09:21:15.465Z,23.33
2018-01-13T09:23:44.371Z,22.75
2018-01-13T09:26:12.501Z,20.35
2018-01-13T09:28:40.620Z,25.00
2018-01-13T09:31:08.789Z,22.10
2018-01-13T09:33:36.985Z,23.10
2018-01-13T09:36:05.159Z,24.05
2018-01-13T09:38:33.299Z,20.90
2018-01-13T09:41:01.481Z,22.08
2018-01-13T09:43:29.645Z,25.37
2018-01-13T09:45:58.519Z,21.80
2018-01-13T09:48:27.455Z,23.87
2018-01-13T09:50:56.323Z,24.30
2018-01-13T09:53:24.457Z,21.95
2018-01-13T09:55:52.605Z,25.90
2018-01-13T09:58:20.739Z,22.58
2018-01-13T10:00:49.653Z,21.63
2018-01-13T10:03:17.779Z,22.10
2018-01-13T10:05:46.824Z,27.73
2018-01-13T10:08:15.326Z,25.88
2018-01-13T10:10:45.217Z,25.37
2018-01-13T10:13:13.745Z,25.55
2018-01-13T10:15:42.015Z,26.17
2018-01-13T10:18:10.228Z,25.92
2018-01-13T10:20:38.530Z,23.80
2018-01-13T10:23:06.752Z,25.27
2018-01-13T10:25:35.088Z,25.57
2018-01-13T10:28:03.500Z,26.95
2018-01-13T10:30:31.630Z,29.35
2018-01-13T10:33:00.204Z,29.63
2018-01-13T10:35:28.334Z,27.23
2018-01-13T10:37:56.605Z,22.87
2018-01-13T10:40:25.561Z,22.75
2018-01-13T10:42:54.447Z,20.95
2018-01-13T10:45:23.362Z,24.33
2018-01-13T10:47:51.552Z,20.25
2018-01-13T10:50:20.453Z,26.15
2018-01-13T10:52:48.586Z,28.62
2018-01-13T10:55:17.505Z,26.35
2018-01-13T10:57:45.644Z,32.20
2018-01-13T11:00:14.549Z,25.42
2018-01-13T11:02:42.733Z,23.30
2018-01-13T11:05:10.849Z,29.80
2018-01-13T11:07:38.980Z,30.52
2018-01-13T11:10:07.111Z,22.83
2018-01-13T11:12:35.243Z,27.02
2018-01-13T11:15:03.398Z,20.98
2018-01-13T11:17:31.513Z,22.73
2018-01-13T11:19:59.660Z,22.95
2018-01-13T11:22:27.788Z,26.00
2018-01-13T11:24:56.783Z,28.90
2018-01-13T11:27:25.711Z,22.70
2018-01-13T11:29:54.677Z,22.50
2018-01-13T11:32:23.553Z,22.73
2018-01-13T11:34:52.467Z,25.92
2018-01-13T11:37:20.601Z,19.50
2018-01-13T11:39:49.527Z,22.95
2018-01-13T11:42:17.640Z,23.33
2018-01-13T11:44:45.804Z,24.08
2018-01-13T11:47:13.935Z,24.30
2018-01-13T11:49:42.046Z,21.02
2018-01-13T11:52:10.189Z,24.12
2018-01-13T11:54:38.343Z,20.63
2018-01-13T11:57:07.234Z,22.62
2018-01-13T11:59:36.140Z,25.37
2018-01-13T12:02:04.424Z,24.33
2018-01-13T12:04:33.369Z,23.92
2018-01-13T12:07:01.466Z,24.40
2018-01-13T12:09:29.637Z,22.63
2018-01-13T12:11:58.526Z,22.20
2018-01-13T12:14:26.656Z,23.75
2018-01-13T12:16:54.885Z,24.02
2018-01-13T12:19:22.999Z,18.87
2018-01-13T12:21:51.115Z,23.60
2018-01-13T12:24:20.031Z,25.70
2018-01-13T12:26:48.156Z,23.75
2018-01-13T12:29:16.314Z,23.42
2018-01-13T12:31:44.445Z,22.20
2018-01-13T12:34:12.580Z,19.00
2018-01-13T12:36:41.511Z,18.45
2018-01-13T12:39:09.628Z,19.43
2018-01-13T12:41:37.783Z,21.65
2018-01-13T12:44:06.091Z,21.70
2018-01-13T12:46:34.974Z,19.20
2018-01-13T12:49:03.882Z,19.17
2018-01-13T12:51:32.767Z,17.70
2018-01-13T12:54:01.666Z,18.37
2018-01-13T12:56:29.860Z,18.42
2018-01-13T12:58:58.747Z,19.73
2018-01-13T13:01:26.884Z,19.00
2018-01-13T13:03:55.809Z,19.58
2018-01-13T13:06:23.953Z,21.50
2018-01-13T13:08:52.854Z,18.77
2018-01-13T13:11:21.744Z,21.08
2018-01-13T13:13:50.643Z,20.27
2018-01-13T13:16:18.770Z,21.52
2018-01-13T13:18:46.949Z,18.15
2018-01-13T13:21:15.089Z,22.58
2018-01-13T13:23:43.210Z,23.73
2018-01-13T13:26:12.125Z,26.70
2018-01-13T13:28:40.258Z,22.65
2018-01-13T13:31:09.910Z,22.58
2018-01-13T13:33:38.912Z,30.67
2018-01-13T13:36:07.188Z,20.67
2018-01-13T13:38:35.299Z,25.00
2018-01-13T13:41:03.449Z,22.17
2018-01-13T13:43:31.709Z,21.05
2018-01-13T13:45:59.838Z,23.60
2018-01-13T13:48:28.093Z,22.45
2018-01-13T13:50:56.206Z,24.92
2018-01-13T13:53:24.393Z,22.40
2018-01-13T13:55:52.499Z,29.30
2018-01-13T13:58:20.634Z,22.15
2018-01-13T14:00:48.774Z,21.00
2018-01-13T14:03:17.233Z,22.58
2018-01-13T14:05:45.350Z,22.17
2018-01-13T14:08:13.495Z,20.45
2018-01-13T14:10:42.390Z,20.80
2018-01-13T14:13:10.524Z,19.58
2018-01-13T14:15:38.695Z,24.35
2018-01-13T14:18:06.867Z,22.40
2018-01-13T14:20:35.239Z,26.02
2018-01-13T14:23:04.173Z,25.17
2018-01-13T14:25:32.308Z,24.42
2018-01-13T14:28:00.434Z,23.12
2018-01-13T14:30:29.342Z,26.15
2018-01-13T14:32:58.259Z,24.58
2018-01-13T14:35:26.454Z,26.73
2018-01-13T14:37:54.603Z,23.83
2018-01-13T14:40:22.767Z,23.90
2018-01-13T14:42:50.938Z,22.73
2018-01-13T14:45:19.125Z,20.90
2018-01-13T14:47:47.273Z,25.70
2018-01-13T14:50:15.401Z,24.17
2018-01-13T14:52:43.581Z,24.23
2018-01-13T14:55:11.727Z,26.13
2018-01-13T14:57:39.905Z,28.23
2018-01-13T15:00:08.061Z,25.62
2018-01-13T15:02:36.222Z,24.95
2018-01-13T15:05:04.385Z,27.55
2018-01-13T15:07:32.562Z,25.12
2018-01-13T15:12:36.074Z,24.70
2018-01-13T15:15:04.239Z,22.27
2018-01-13T15:17:33.139Z,23.92
2018-01-13T15:20:01.257Z,25.20
2018-01-13T15:22:29.470Z,33.70
2018-01-13T15:24:58.370Z,27.27
2018-01-13T15:27:26.505Z,23.17
2018-01-13T15:29:54.628Z,23.70
2018-01-13T15:32:22.729Z,24.37
2018-01-13T15:34:50.917Z,25.75
2018-01-13T15:37:19.052Z,26.23
2018-01-13T15:39:47.249Z,27.47
2018-01-13T15:42:15.493Z,30.45
2018-01-13T15:44:44.425Z,22.45
2018-01-13T15:47:12.712Z,25.17
2018-01-13T15:49:40.946Z,26.37
2018-01-13T15:52:09.063Z,25.20
2018-01-13T15:54:37.990Z,24.20
2018-01-13T15:57:06.992Z,24.15
2018-01-13T15:59:35.916Z,25.70
2018-01-13T16:02:04.036Z,26.53
2018-01-13T16:04:32.224Z,25.50
2018-01-13T16:07:00.383Z,24.92
2018-01-13T16:09:29.298Z,25.08
2018-01-13T16:11:57.475Z,31.37
2018-01-13T16:14:25.630Z,23.95
2018-01-13T16:16:54.527Z,28.38
2018-01-13T16:19:22.801Z,29.25
2018-01-13T16:21:51.017Z,31.17
2018-01-13T16:24:20.175Z,28.95
2018-01-13T16:26:48.383Z,27.17
2018-01-13T16:29:16.597Z,29.45
2018-01-13T16:31:47.822Z,29.40
2018-01-13T16:34:15.952Z,32.20
2018-01-13T16:36:44.125Z,28.62
2018-01-13T16:39:12.326Z,34.30
2018-01-13T16:41:40.468Z,27.33
2018-01-13T16:44:08.642Z,26.80
2018-01-13T16:46:37.046Z,31.90
2018-01-13T16:49:05.163Z,28.73
2018-01-13T16:51:34.149Z,32.85
2018-01-13T16:54:03.098Z,29.10
2018-01-13T16:56:31.291Z,33.45
2018-01-13T16:58:59.522Z,29.20
2018-01-13T17:01:27.887Z,30.00
2018-01-13T17:03:56.847Z,30.70
2018-01-13T17:06:24.998Z,29.92
2018-01-13T17:08:53.215Z,32.57
2018-01-13T17:11:22.202Z,34.58
2018-01-13T17:13:51.558Z,34.88
2018-01-13T17:16:19.705Z,27.37
2018-01-13T17:18:48.675Z,32.72
2018-01-13T17:21:17.628Z,27.08
2018-01-13T17:23:46.569Z,28.73
2018-01-13T17:26:14.794Z,32.38
2018-01-13T17:28:43.114Z,34.53
2018-01-13T17:31:12.078Z,29.42
2018-01-13T17:33:40.220Z,29.83
2018-01-13T17:36:08.355Z,28.20
2018-01-13T17:38:36.508Z,29.63
2018-01-13T17:41:04.631Z,29.83
2018-01-13T17:43:32.785Z,28.80
2018-01-13T17:46:00.979Z,30.75
2018-01-13T17:48:29.122Z,27.95
2018-01-13T17:50:58.009Z,33.97
2018-01-13T17:53:26.199Z,29.87
2018-01-13T17:55:54.348Z,31.70
2018-01-13T17:58:23.252Z,28.27
2018-01-13T18:00:52.178Z,31.70
2018-01-13T18:03:20.471Z,27.02
2018-01-13T18:05:48.596Z,31.50
2018-01-13T18:08:16.736Z,29.77
2018-01-13T18:10:44.883Z,34.85
2018-01-13T18:13:13.014Z,26.58
2018-01-13T18:15:41.218Z,26.12
2018-01-13T18:18:09.370Z,30.88
2018-01-13T18:20:37.526Z,29.67
2018-01-13T18:23:05.669Z,28.35
2018-01-13T18:25:36.030Z,30.30
2018-01-13T18:28:04.901Z,31.48
2018-01-13T18:30:33.906Z,29.15
2018-01-13T18:33:02.786Z,24.63
2018-01-13T18:35:31.673Z,27.40
2018-01-13T18:38:00.619Z,26.60
2018-01-13T18:40:28.758Z,25.25
2018-01-13T18:42:56.918Z,26.62
2018-01-13T18:45:25.059Z,27.80
2018-01-13T18:47:53.180Z,28.02
2018-01-13T18:50:21.327Z,28.17
2018-01-13T18:52:50.253Z,27.48
2018-01-13T18:55:18.408Z,26.27
2018-01-13T18:57:46.551Z,28.75
2018-01-13T19:00:15.481Z,24.63
2018-01-13T19:02:43.607Z,28.77
2018-01-13T19:05:11.745Z,31.30
2018-01-13T19:07:39.880Z,26.35
2018-01-13T19:10:07.991Z,27.30
2018-01-13T19:12:36.164Z,28.70
2018-01-13T19:15:04.315Z,31.90
2018-01-13T19:17:32.467Z,27.20
2018-01-13T19:20:01.481Z,27.23
2018-01-13T19:22:29.646Z,25.15
2018-01-13T19:24:57.932Z,28.45
2018-01-13T19:27:26.075Z,25.70
2018-01-13T19:29:55.010Z,22.75
2018-01-13T19:32:23.279Z,24.92
2018-01-13T19:34:51.439Z,29.20
2018-01-13T19:37:19.618Z,25.88
2018-01-13T19:39:47.752Z,28.40
2018-01-13T19:42:16.734Z,27.83
2018-01-13T19:44:44.926Z,25.23
2018-01-13T19:47:13.166Z,27.45
2018-01-13T19:49:41.328Z,27.20
2018-01-13T19:52:09.515Z,27.95
2018-01-13T19:54:37.669Z,19.23
2018-01-13T19:57:05.837Z,18.12
2018-01-13T19:59:33.980Z,18.58
2018-01-13T20:02:02.200Z,21.20
2018-01-13T20:04:30.343Z,21.27
2018-01-13T20:06:58.506Z,20.95
2018-01-13T20:09:26.671Z,18.03
2018-01-13T20:11:54.846Z,21.55
2018-01-13T20:14:23.742Z,22.62
2018-01-13T20:16:51.914Z,21.48
2018-01-13T20:19:20.879Z,29.15
2018-01-13T20:21:49.193Z,23.95
2018-01-13T20:24:17.323Z,20.50
2018-01-13T20:26:45.509Z,21.87
2018-01-13T20:29:14.450Z,22.27
2018-01-13T20:31:42.587Z,16.48
2018-01-13T20:34:10.714Z,26.20
2018-01-13T20:36:38.899Z,18.67
2018-01-13T20:39:07.060Z,19.90
2018-01-13T20:41:35.250Z,22.35
2018-01-13T20:44:03.436Z,17.80
2018-01-13T20:46:32.330Z,18.02
2018-01-13T20:49:01.255Z,19.62
2018-01-13T20:51:30.158Z,20.40
2018-01-13T20:53:58.312Z,21.67
2018-01-13T20:56:26.470Z,22.20
2018-01-13T20:58:54.642Z,21.62
2018-01-13T21:01:22.827Z,16.83
2018-01-13T21:03:51.051Z,17.80
2018-01-13T21:06:19.212Z,15.10
2018-01-13T21:08:47.552Z,20.50
2018-01-13T21:11:15.688Z,20.15
2018-01-13T21:13:44.615Z,20.92
2018-01-13T21:16:12.740Z,16.73
2018-01-13T21:18:40.869Z,17.52
2018-01-13T21:21:09.026Z,18.20
2018-01-13T21:23:37.198Z,15.27
2018-01-13T21:26:05.390Z,16.25
2018-01-13T21:28:33.518Z,16.77
2018-01-13T21:31:02.440Z,17.23
2018-01-13T21:33:30.927Z,20.30
2018-01-13T21:35:59.070Z,18.35
2018-01-13T21:38:28.013Z,17.42
2018-01-13T21:40:56.152Z,17.35
2018-01-13T21:43:25.234Z,18.05
2018-01-13T21:46:18.697Z,16.00
2018-01-13T21:48:47.628Z,18.30
2018-01-13T21:51:16.536Z,17.48
2018-01-13T21:53:44.641Z,15.70
2018-01-13T21:56:13.083Z,17.05
2018-01-13T21:58:41.214Z,15.13
2018-01-13T22:01:09.371Z,17.27
2018-01-13T22:03:38.404Z,18.35
2018-01-13T22:06:06.528Z,21.75
2018-01-13T22:08:34.670Z,16.30
2018-01-13T22:11:02.797Z,20.60
2018-01-13T22:13:31.694Z,19.33
2018-01-13T22:16:00.594Z,18.37
2018-01-13T22:18:28.731Z,20.15
2018-01-13T22:20:57.635Z,20.70
2018-01-13T22:23:26.526Z,20.25
2018-01-13T22:25:55.434Z,19.98
2018-01-13T22:28:23.574Z,19.10
2018-01-13T22:30:52.486Z,17.95
2018-01-13T22:33:20.636Z,19.50
2018-01-13T22:35:48.760Z,22.00
2018-01-13T22:38:16.902Z,16.08
2018-01-13T22:40:45.033Z,17.85
2018-01-13T22:43:13.221Z,17.20
2018-01-13T22:45:41.534Z,19.87
2018-01-13T22:48:09.835Z,21.00
2018-01-13T22:50:38.879Z,19.23
2018-01-13T22:53:07.030Z,20.48
2018-01-13T22:55:35.190Z,19.27
2018-01-13T22:58:03.393Z,18.65
2018-01-13T23:03:23.606Z,20.08
2018-01-13T23:05:51.874Z,22.45
2018-01-13T23:08:20.048Z,17.67
2018-01-13T23:10:48.180Z,23.27
2018-01-13T23:13:17.082Z,22.62
2018-01-13T23:15:45.214Z,18.83
2018-01-13T23:18:13.522Z,19.20
2018-01-13T23:20:42.455Z,23.62
2018-01-13T23:23:10.566Z,17.85
2018-01-13T23:25:38.862Z,20.98
2018-01-13T23:28:07.861Z,21.73
2018-01-13T23:30:36.854Z,18.90
2018-01-13T23:33:04.987Z,18.70
2018-01-13T23:35:33.151Z,17.42
2018-01-13T23:38:01.302Z,20.92
2018-01-13T23:40:29.568Z,18.27
2018-01-13T23:42:57.802Z,19.35
2018-01-13T23:45:26.814Z,18.55
2018-01-13T23:47:55.823Z,22.58
2018-01-13T23:50:24.790Z,19.25
2018-01-13T23:52:52.955Z,18.23
2018-01-13T23:55:21.834Z,20.17
2018-01-13T23:57:49.955Z,22.33
